Time;durP1;ratioP1;P1;durP2;ratioP2;P2;SDS_P1;SDS_P2;PMS_P1;PMS_P2;Temp;Humidity;BMP_temperature;BMP_pressure;BME280_temperature;BME280_humidity;BME280_pressure;Samples;Min_cycle;Max_cycle;Signal;HPM_P1;HPM_P2
2022/01/08 00:01:11;;;;;;;;;0.00;0.00;;;;;8.28;59.64;101000.75;5015402;28;45129;-58
2022/01/08 00:03:37;;;;;;;;;1.00;1.00;;;;;8.29;60.67;101006.97;5011520;28;45152;-58
2022/01/08 00:06:02;;;;;;;;;0.25;0.25;;;;;8.26;60.68;101021.06;5017901;28;45155;-60
2022/01/08 00:08:28;;;;;;;;;1.75;1.00;;;;;8.06;59.78;100990.97;5018130;28;44977;-63
2022/01/08 00:10:54;;;;;;;;;0.50;0.50;;;;;8.24;60.50;101033.41;5018185;28;45421;-58
2022/01/08 00:13:20;;;;;;;;;3.50;2.00;;;;;8.27;61.37;101036.19;5012901;28;45112;-57
2022/01/08 00:15:45;;;;;;;;;1.75;1.75;;;;;8.29;60.43;101038.91;5017472;28;45179;-62
2022/01/08 00:18:10;;;;;;;;;0.00;0.00;;;;;8.25;60.14;101045.88;5017501;28;44904;-66
2022/01/08 00:20:36;;;;;;;;;1.75;1.00;;;;;8.23;60.74;101057.28;5017823;28;45381;-61
2022/01/08 00:23:02;;;;;;;;;1.00;1.00;;;;;8.12;60.06;101035.59;5010945;28;45317;-63
2022/01/08 00:25:28;;;;;;;;;5.00;3.00;;;;;8.22;60.85;101040.44;5018050;28;45714;-61
2022/01/08 00:27:53;;;;;;;;;2.00;2.00;;;;;8.19;60.06;101044.72;5017063;28;45022;-59
2022/01/08 00:30:19;;;;;;;;;18.00;12.25;;;;;8.21;60.70;101040.38;5016544;28;44898;-58
2022/01/08 00:32:44;;;;;;;;;0.25;0.25;;;;;8.22;60.64;101050.19;5009946;28;44908;-59
2022/01/08 00:35:10;;;;;;;;;2.00;2.00;;;;;8.21;60.10;101057.22;4993665;28;45502;-64
2022/01/08 00:37:37;;;;;;;;;2.50;1.25;;;;;8.06;60.17;101044.19;4982289;28;45607;-62
2022/01/08 00:40:05;;;;;;;;;5.00;4.00;;;;;7.71;60.40;100981.56;4992841;28;45402;-57
2022/01/08 00:42:31;;;;;;;;;1.25;0.00;;;;;8.14;60.08;101071.13;5003212;28;44907;-65
2022/01/08 00:44:56;;;;;;;;;0.75;0.75;;;;;8.07;60.07;101074.41;4996522;28;45048;-70
2022/01/08 00:47:21;;;;;;;;;0.00;0.00;;;;;7.61;60.68;101021.94;4994540;28;45263;-59
2022/01/08 00:49:47;;;;;;;;;1.50;1.50;;;;;7.78;60.45;101074.06;4996261;28;45152;-61
2022/01/08 00:52:12;;;;;;;;;2.00;2.00;;;;;7.87;60.33;101086.84;4998517;28;45289;-62
2022/01/08 00:54:38;;;;;;;;;2.00;1.00;;;;;7.81;61.35;101079.53;4996440;28;45715;-57
2022/01/08 00:57:04;;;;;;;;;2.00;2.00;;;;;7.77;60.93;101096.22;4992856;28;45657;-58
2022/01/08 00:59:30;;;;;;;;;2.00;1.00;;;;;7.68;61.64;101103.78;4993368;28;44912;-59
2022/01/08 01:01:55;;;;;;;;;5.00;3.75;;;;;7.66;62.08;101108.13;5000929;28;45232;-55
2022/01/08 01:04:20;;;;;;;;;2.75;2.75;;;;;7.41;62.01;101082.19;5001527;28;45153;-57
2022/01/08 01:06:46;;;;;;;;;8.25;2.00;;;;;7.42;62.33;101098.19;4993686;28;45149;-63
2022/01/08 01:09:11;;;;;;;;;1.75;0.25;;;;;7.41;63.30;101119.38;4993396;28;45114;-55
2022/01/08 01:11:37;;;;;;;;;1.50;1.00;;;;;7.35;63.21;101115.63;4992085;28;46401;-62
2022/01/08 01:14:02;;;;;;;;;3.00;1.00;;;;;7.40;63.22;101109.63;4992870;28;45527;-58
2022/01/08 01:16:28;;;;;;;;;8.50;2.50;;;;;7.36;63.30;101097.94;4992139;28;45335;-62
2022/01/08 01:18:54;;;;;;;;;1.00;1.00;;;;;7.40;63.31;101115.84;4994932;28;45013;-57
2022/01/08 01:21:19;;;;;;;;;9.75;8.25;;;;;7.26;63.13;101088.66;4998133;28;45090;-58
2022/01/08 01:23:46;;;;;;;;;4.25;3.50;;;;;7.37;63.58;101113.97;4994519;28;45444;-58
2022/01/08 01:26:17;;;;;;;;;3.00;3.00;;;;;7.32;63.82;101111.91;4994563;28;45051;-64
2022/01/08 01:28:56;;;;;;;;;7.00;4.25;;;;;7.21;62.97;101095.50;4994206;28;44947;-57
2022/01/08 01:47:17;;;;;;;;;1.50;1.50;;;;;7.47;62.01;101106.38;5013164;28;45072;-58
2022/01/08 01:49:44;;;;;;;;;1.00;1.00;;;;;7.41;61.93;101091.09;5008774;28;45217;-64
2022/01/08 01:52:14;;;;;;;;;0.00;0.00;;;;;7.50;61.68;101109.19;4997936;28;45097;-56
2022/01/08 01:54:40;;;;;;;;;1.00;1.00;;;;;7.43;61.65;101109.75;4994334;28;45265;-62
2022/01/08 01:57:08;;;;;;;;;2.50;0.25;;;;;7.46;61.53;101117.88;4994132;28;45062;-59
2022/01/08 01:59:35;;;;;;;;;1.00;0.75;;;;;7.33;61.36;101092.50;4998090;28;45038;-56
2022/01/08 02:02:01;;;;;;;;;2.50;1.00;;;;;7.43;61.26;101115.06;4994168;28;45046;-65
2022/01/08 02:04:27;;;;;;;;;2.00;1.00;;;;;7.48;61.11;101129.47;4993888;28;45483;-64
2022/01/08 02:06:52;;;;;;;;;2.00;1.00;;;;;7.42;61.44;101116.81;4993040;28;45124;-58
2022/01/08 02:09:18;;;;;;;;;1.00;1.00;;;;;7.49;61.51;101116.25;4996409;28;45195;-58
2022/01/08 02:12:04;;;;;;;;;6.25;2.50;;;;;7.54;61.49;101112.06;4976913;28;45261;-59
2022/01/08 02:14:32;;;;;;;;;1.00;1.00;;;;;7.54;61.72;101106.75;5003878;28;45181;-60
2022/01/08 02:16:58;;;;;;;;;2.00;2.00;;;;;7.64;61.60;101112.44;5010392;28;45188;-58
2022/01/08 02:19:24;;;;;;;;;3.00;3.00;;;;;7.67;61.66;101121.50;5006460;28;45242;-59
2022/01/08 02:21:59;;;;;;;;;1.00;0.50;;;;;7.70;60.39;101128.69;4992727;28;45225;-61
2022/01/08 02:24:26;;;;;;;;;1.75;1.25;;;;;7.71;60.89;101119.88;4991747;28;45059;-59
2022/01/08 02:26:52;;;;;;;;;1.00;1.00;;;;;7.62;61.18;101103.50;4994841;28;45544;-69
2022/01/08 02:29:19;;;;;;;;;2.00;2.00;;;;;7.74;61.27;101131.53;4991891;28;45639;-59
2022/01/08 02:31:58;;;;;;;;;1.00;1.00;;;;;7.24;60.45;101037.16;4993651;28;45185;-59
2022/01/08 02:34:26;;;;;;;;;1.75;1.00;;;;;7.64;60.80;101121.34;5006698;28;45234;-60
2022/01/08 02:36:52;;;;;;;;;0.75;0.75;;;;;7.60;60.44;101116.72;5006103;28;45010;-72
2022/01/08 02:39:18;;;;;;;;;2.00;1.00;;;;;7.59;61.11;101128.22;4999533;28;45057;-58
2022/01/08 02:41:43;;;;;;;;;0.00;0.00;;;;;7.39;60.94;101106.03;5012370;28;45016;-59
2022/01/08 02:44:09;;;;;;;;;3.50;0.75;;;;;7.35;60.87;101106.75;5011747;28;46564;-68
2022/01/08 02:46:37;;;;;;;;;2.00;0.75;;;;;7.38;61.45;101118.41;5007153;28;45110;-62
2022/01/08 02:49:04;;;;;;;;;3.50;0.00;;;;;7.30;61.04;101102.97;5011688;28;45140;-58
2022/01/08 02:51:31;;;;;;;;;7.25;6.50;;;;;7.43;61.46;101131.94;5012790;28;45090;-69
2022/01/08 02:53:56;;;;;;;;;4.25;4.00;;;;;7.43;61.47;101126.63;5012314;28;45586;-61
2022/01/08 02:56:21;;;;;;;;;0.00;0.00;;;;;7.38;61.16;101128.16;5011814;28;45175;-63
2022/01/08 02:58:47;;;;;;;;;1.00;0.00;;;;;7.31;61.60;101134.00;4995765;28;45347;-60
2022/01/08 03:01:12;;;;;;;;;3.50;1.00;;;;;7.06;61.06;101110.72;4993808;28;45209;-59
2022/01/08 03:03:37;;;;;;;;;1.00;1.00;;;;;7.25;62.09;101147.94;4992975;28;45696;-57
2022/01/08 03:06:03;;;;;;;;;0.00;0.00;;;;;7.24;61.29;101139.91;4994580;28;45258;-56
2022/01/08 03:08:28;;;;;;;;;3.00;1.25;;;;;7.28;61.39;101140.13;4996133;28;45016;-61
2022/01/08 03:10:54;;;;;;;;;0.00;0.00;;;;;7.04;61.64;101104.44;4982600;28;45439;-57
2022/01/08 03:13:22;;;;;;;;;0.25;0.00;;;;;7.29;61.48;101133.03;5012287;28;45008;-65
2022/01/08 03:15:48;;;;;;;;;1.00;1.00;;;;;7.38;61.52;101139.69;5012702;28;45006;-57
2022/01/08 03:18:13;;;;;;;;;1.00;0.00;;;;;7.37;60.65;101132.56;4998866;28;45582;-57
2022/01/08 03:20:47;;;;;;;;;1.00;1.00;;;;;7.40;61.31;101129.13;4990433;28;44955;-61
2022/01/08 03:23:16;;;;;;;;;0.00;0.00;;;;;7.36;60.30;101124.53;4989520;28;45090;-57
2022/01/08 03:25:42;;;;;;;;;0.00;0.00;;;;;7.39;60.54;101124.63;4994015;28;45008;-64
2022/01/08 03:28:07;;;;;;;;;0.75;0.75;;;;;7.37;60.36;101127.25;4990852;28;45607;-59
2022/01/08 03:30:34;;;;;;;;;3.00;1.00;;;;;7.38;60.54;101120.19;4993265;28;44948;-58
2022/01/08 03:33:00;;;;;;;;;0.00;0.00;;;;;7.35;60.85;101112.97;4992465;28;45505;-59
2022/01/08 03:35:26;;;;;;;;;1.25;0.00;;;;;7.35;61.09;101118.28;4995464;28;45059;-58
2022/01/08 03:37:51;;;;;;;;;0.25;0.00;;;;;7.36;60.64;101114.78;4993124;28;45184;-64
2022/01/08 03:40:17;;;;;;;;;0.00;0.00;;;;;7.21;60.76;101092.84;4993434;28;45141;-63
2022/01/08 03:42:42;;;;;;;;;0.00;0.00;;;;;7.33;60.63;101119.06;4994229;28;45478;-58
2022/01/08 03:45:08;;;;;;;;;0.00;0.00;;;;;7.26;61.04;101111.63;4992731;28;45050;-57
2022/01/08 03:48:05;;;;;;;;;1.75;0.00;;;;;7.33;61.26;101135.91;4992656;28;45157;-57
2022/01/08 03:50:27;;;;;;;;;1.00;1.00;;;;;7.32;60.96;101136.75;4992784;28;45033;-61
2022/01/08 03:52:53;;;;;;;;;2.00;0.00;;;;;7.28;61.30;101142.78;4994645;28;45239;-60
2022/01/08 03:55:18;;;;;;;;;0.00;0.00;;;;;7.25;61.08;101139.06;4993252;28;45208;-60
2022/01/08 03:57:43;;;;;;;;;0.00;0.00;;;;;7.16;61.45;101129.84;4991033;28;45205;-61
2022/01/08 04:00:09;;;;;;;;;0.50;0.50;;;;;7.10;61.92;101121.56;5005428;28;45154;-68
2022/01/08 04:02:34;;;;;;;;;0.00;0.00;;;;;7.02;62.28;101107.03;5007929;28;45163;-55
2022/01/08 04:05:00;;;;;;;;;1.00;1.00;;;;;7.13;61.71;101129.69;4971832;28;45284;-58
2022/01/08 04:07:25;;;;;;;;;1.25;1.00;;;;;7.10;61.83;101118.91;4985038;28;45217;-58
2022/01/08 04:09:50;;;;;;;;;0.00;0.00;;;;;7.12;62.30;101119.88;4987331;28;45117;-61
2022/01/08 04:12:21;;;;;;;;;0.00;0.00;;;;;6.90;61.92;101099.41;4980078;28;45389;-57
2022/01/08 04:14:54;;;;;;;;;0.00;0.00;;;;;7.03;62.24;101123.84;4978554;28;45237;-57
2022/01/08 04:17:19;;;;;;;;;0.00;0.00;;;;;7.00;62.18;101116.69;4994249;28;45361;-65
2022/01/08 04:19:45;;;;;;;;;0.00;0.00;;;;;7.18;61.97;101140.53;4994332;28;45359;-62
2022/01/08 04:22:12;;;;;;;;;2.25;0.00;;;;;7.20;62.37;101134.44;4997471;28;45561;-69
2022/01/08 04:24:41;;;;;;;;;1.50;0.50;;;;;7.16;61.94;101120.94;4988292;28;45531;-59
2022/01/08 04:27:07;;;;;;;;;0.75;0.75;;;;;7.17;62.31;101122.75;4985456;28;45452;-57
2022/01/08 04:29:32;;;;;;;;;0.00;0.00;;;;;7.18;62.30;101125.50;4982254;28;45827;-58
2022/01/08 04:31:58;;;;;;;;;0.00;0.00;;;;;7.04;62.66;101099.13;4985798;28;45270;-59
2022/01/08 04:34:23;;;;;;;;;0.25;0.25;;;;;7.16;62.21;101127.19;4999621;28;45038;-57
2022/01/08 04:36:49;;;;;;;;;2.00;0.25;;;;;7.22;62.25;101131.84;4989599;28;45425;-65
2022/01/08 04:39:14;;;;;;;;;0.00;0.00;;;;;7.17;62.50;101106.81;4995816;28;45450;-61
2022/01/08 04:41:41;;;;;;;;;3.00;1.00;;;;;7.31;62.63;101121.66;4995429;28;45638;-55
2022/01/08 04:44:07;;;;;;;;;0.00;0.00;;;;;7.32;62.11;101120.78;5001963;28;45110;-64
2022/01/08 04:46:33;;;;;;;;;0.00;0.00;;;;;7.33;62.53;101119.06;4995758;28;45083;-60
2022/01/08 04:48:58;;;;;;;;;0.00;0.00;;;;;7.28;62.67;101120.63;4995669;28;45007;-59
2022/01/08 04:51:23;;;;;;;;;1.00;1.00;;;;;7.31;62.66;101123.38;4996224;28;45749;-57
2022/01/08 04:53:49;;;;;;;;;0.75;0.75;;;;;7.30;62.85;101126.91;4995811;28;45356;-56
2022/01/08 04:56:14;;;;;;;;;0.00;0.00;;;;;7.33;62.60;101148.31;4994913;28;45096;-59
2022/01/08 04:58:40;;;;;;;;;1.75;0.50;;;;;7.28;62.74;101153.41;4993302;28;45273;-56
2022/01/08 05:01:11;;;;;;;;;0.50;0.00;;;;;7.29;62.70;101156.97;4993141;28;45141;-57
2022/01/08 05:03:37;;;;;;;;;0.00;0.00;;;;;7.29;63.06;101157.88;4994811;28;45426;-60
2022/01/08 05:06:02;;;;;;;;;2.25;1.00;;;;;7.28;63.13;101157.81;4993004;28;45193;-60
2022/01/08 05:08:27;;;;;;;;;0.00;0.00;;;;;7.29;63.72;101160.56;4992809;28;45038;-56
2022/01/08 05:10:52;;;;;;;;;3.00;1.00;;;;;7.29;63.57;101160.56;4993563;28;45178;-60
2022/01/08 05:13:18;;;;;;;;;2.00;0.50;;;;;7.29;63.56;101159.63;4995313;28;45064;-66
2022/01/08 05:15:43;;;;;;;;;1.25;1.00;;;;;7.28;63.44;101153.41;4995264;28;44978;-57
2022/01/08 05:18:10;;;;;;;;;1.75;1.75;;;;;7.36;63.66;101154.66;4995363;28;45003;-56
2022/01/08 05:20:38;;;;;;;;;0.25;0.25;;;;;7.37;63.73;101144.94;4999169;28;45568;-58
2022/01/08 05:23:04;;;;;;;;;0.00;0.00;;;;;7.39;63.92;101145.91;4995012;28;45070;-58
2022/01/08 05:25:30;;;;;;;;;1.00;0.25;;;;;7.19;63.72;101111.38;4994892;28;44992;-62
2022/01/08 05:27:56;;;;;;;;;0.25;0.25;;;;;7.39;63.74;101143.25;4994708;28;44961;-59
2022/01/08 05:30:24;;;;;;;;;3.00;1.50;;;;;7.44;63.54;101147.06;4997819;28;45195;-58
2022/01/08 05:32:50;;;;;;;;;2.00;0.50;;;;;7.49;63.91;101144.56;4994779;28;45271;-58
2022/01/08 05:35:19;;;;;;;;;0.00;0.00;;;;;7.51;63.65;101142.91;4994543;28;45011;-56
2022/01/08 05:37:44;;;;;;;;;1.00;1.00;;;;;7.53;63.33;101128.84;4997563;28;45220;-58
2022/01/08 05:40:11;;;;;;;;;0.00;0.00;;;;;7.56;63.41;101128.06;4994525;28;48336;-60
2022/01/08 05:42:37;;;;;;;;;1.00;0.00;;;;;7.59;63.46;101124.63;4994428;28;45037;-59
2022/01/08 05:45:04;;;;;;;;;2.25;1.50;;;;;7.57;63.34;101111.25;5001146;28;45076;-63
2022/01/08 05:47:32;;;;;;;;;1.75;1.75;;;;;7.40;63.79;101086.59;5001278;28;45121;-64
2022/01/08 05:49:57;;;;;;;;;0.00;0.00;;;;;7.43;63.96;101097.38;5014178;28;46186;-60
2022/01/08 05:52:23;;;;;;;;;0.00;0.00;;;;;7.62;63.71;101114.13;5013686;28;45323;-59
2022/01/08 05:54:49;;;;;;;;;0.00;0.00;;;;;7.66;64.09;101105.47;4999839;28;44973;-57
2022/01/08 05:57:14;;;;;;;;;1.00;1.00;;;;;7.33;63.81;101037.56;4995145;28;44962;-60
2022/01/08 05:59:39;;;;;;;;;6.50;1.75;;;;;7.72;63.41;101101.31;4994442;28;45696;-64
2022/01/08 06:02:06;;;;;;;;;5.25;2.75;;;;;7.75;63.88;101108.50;4985668;28;45381;-57
2022/01/08 06:04:31;;;;;;;;;0.25;0.25;;;;;7.78;64.01;101107.75;4996007;28;45161;-64
2022/01/08 06:06:57;;;;;;;;;1.00;0.00;;;;;7.64;64.11;101085.84;4992424;28;45152;-56
2022/01/08 06:09:22;;;;;;;;;0.00;0.00;;;;;7.83;63.33;101125.69;4991352;28;45133;-58
2022/01/08 06:11:48;;;;;;;;;0.00;0.00;;;;;7.87;63.49;101129.41;4993032;28;45018;-57
2022/01/08 06:14:13;;;;;;;;;0.25;0.25;;;;;7.87;63.62;101122.34;4995410;28;45150;-57
2022/01/08 06:16:38;;;;;;;;;1.50;0.25;;;;;7.93;63.28;101125.25;5001878;28;45172;-61
2022/01/08 06:19:10;;;;;;;;;1.50;1.00;;;;;7.95;63.93;101120.00;5008895;28;45717;-58
2022/01/08 06:21:36;;;;;;;;;1.25;1.25;;;;;8.02;62.74;101108.78;4993496;28;45051;-64
2022/01/08 06:24:02;;;;;;;;;0.00;0.00;;;;;7.99;63.63;101091.81;4985027;28;45274;-65
2022/01/08 06:26:28;;;;;;;;;1.00;0.75;;;;;8.02;63.39;101087.50;4989951;28;45225;-61
2022/01/08 06:28:53;;;;;;;;;0.25;0.00;;;;;7.67;63.02;101028.41;4993514;28;45369;-55
2022/01/08 06:31:19;;;;;;;;;1.25;1.25;;;;;8.04;63.56;101084.91;4996538;28;45100;-66
2022/01/08 06:33:46;;;;;;;;;1.00;1.00;;;;;8.04;63.17;101087.56;5004592;28;45244;-66
2022/01/08 06:36:12;;;;;;;;;0.50;0.50;;;;;8.05;63.52;101100.00;4994019;28;45023;-72
2022/01/08 06:38:37;;;;;;;;;3.00;1.25;;;;;7.88;63.41;101088.66;5007379;28;46009;-56
2022/01/08 06:41:02;;;;;;;;;0.00;0.00;;;;;7.90;63.17;101077.25;5012441;28;45120;-56
2022/01/08 06:43:28;;;;;;;;;3.00;2.00;;;;;7.98;63.60;101085.53;5011820;28;45548;-57
2022/01/08 06:45:53;;;;;;;;;2.75;2.75;;;;;8.09;64.05;101086.00;4995165;28;45327;-56
2022/01/08 06:48:18;;;;;;;;;6.00;2.75;;;;;8.10;63.28;101080.75;5012372;28;44994;-58
2022/01/08 06:50:44;;;;;;;;;1.00;0.25;;;;;8.06;63.64;101072.56;4994459;28;44940;-60
2022/01/08 06:53:09;;;;;;;;;2.75;1.00;;;;;8.13;63.98;101082.63;4992689;28;45200;-58
2022/01/08 06:55:35;;;;;;;;;1.25;1.25;;;;;8.17;63.61;101079.25;5011278;28;45038;-57
2022/01/08 06:58:00;;;;;;;;;2.75;1.00;;;;;8.21;63.43;101072.31;5011544;28;45522;-65
2022/01/08 07:00:26;;;;;;;;;1.00;1.00;;;;;8.20;63.84;101079.38;4994673;28;45085;-63
2022/01/08 07:02:51;;;;;;;;;1.50;1.00;;;;;8.21;62.99;101078.53;4993104;28;44952;-60
2022/01/08 07:05:16;;;;;;;;;2.50;1.00;;;;;8.23;63.74;101086.56;4988941;28;45349;-58
2022/01/08 07:07:42;;;;;;;;;4.75;2.00;;;;;8.20;63.35;101079.38;4973991;28;45523;-64
2022/01/08 07:10:07;;;;;;;;;3.00;2.00;;;;;8.22;63.37;101069.69;4991577;28;45012;-56
2022/01/08 07:12:33;;;;;;;;;5.00;1.00;;;;;8.22;63.69;101068.81;4992097;28;45172;-59
2022/01/08 07:14:58;;;;;;;;;1.75;1.75;;;;;8.04;63.54;101048.56;4998118;28;45300;-58
2022/01/08 07:17:23;;;;;;;;;1.75;1.75;;;;;8.11;64.23;101060.38;5000361;28;45319;-56
2022/01/08 07:19:49;;;;;;;;;3.50;2.50;;;;;8.09;64.31;101064.72;5001031;28;45169;-54
2022/01/08 07:22:14;;;;;;;;;4.25;2.00;;;;;7.99;64.31;101054.56;5000361;28;44994;-60
2022/01/08 07:24:40;;;;;;;;;5.25;2.00;;;;;7.97;64.95;101045.56;5006288;28;45149;-61
2022/01/08 07:27:06;;;;;;;;;5.00;3.75;;;;;7.61;64.83;100982.03;4990412;28;45174;-57
2022/01/08 07:29:31;;;;;;;;;3.25;2.00;;;;;8.01;65.71;101043.09;4995605;28;45153;-69
2022/01/08 07:31:56;;;;;;;;;6.00;2.75;;;;;8.03;65.11;101045.84;4997447;28;45360;-59
2022/01/08 07:34:22;;;;;;;;;2.75;2.75;;;;;8.05;65.76;101046.81;4996312;28;45320;-59
2022/01/08 07:36:48;;;;;;;;;8.25;3.75;;;;;8.04;65.06;101047.66;4992623;28;46076;-55
2022/01/08 07:39:13;;;;;;;;;4.75;2.50;;;;;8.06;65.00;101033.56;4989392;28;45658;-62
2022/01/08 07:41:38;;;;;;;;;3.50;1.00;;;;;8.06;65.33;101038.88;4973838;28;45471;-59
2022/01/08 07:44:04;;;;;;;;;2.75;2.50;;;;;7.99;65.57;101033.25;4984639;28;45440;-59
2022/01/08 07:46:29;;;;;;;;;1.00;1.00;;;;;8.06;65.65;101036.22;5006627;28;45326;-60
2022/01/08 07:48:55;;;;;;;;;5.00;3.00;;;;;8.10;65.12;101031.91;5007745;28;45100;-61
2022/01/08 07:51:20;;;;;;;;;4.50;2.25;;;;;8.11;65.64;101044.41;4994501;28;45564;-60
2022/01/08 07:53:46;;;;;;;;;5.50;4.50;;;;;8.09;65.11;101020.38;4996807;28;45698;-61
2022/01/08 07:56:12;;;;;;;;;2.75;2.50;;;;;8.06;66.26;101030.91;5006205;28;45250;-58
2022/01/08 07:58:37;;;;;;;;;6.75;3.75;;;;;7.95;65.91;101005.59;5000860;28;45081;-60
2022/01/08 08:01:02;;;;;;;;;2.00;2.00;;;;;8.04;66.22;101006.00;4995644;28;45563;-62
2022/01/08 08:03:28;;;;;;;;;7.50;2.00;;;;;8.06;65.46;101014.03;5001828;28;44941;-61
2022/01/08 08:05:53;;;;;;;;;3.25;2.25;;;;;7.88;66.50;100977.84;4998482;28;45444;-59
2022/01/08 08:08:20;;;;;;;;;4.50;3.25;;;;;8.11;66.36;101005.38;5011515;28;45377;-59
2022/01/08 08:10:49;;;;;;;;;4.50;3.25;;;;;8.14;65.71;101009.03;4990694;28;45288;-57
2022/01/08 08:13:15;;;;;;;;;2.25;2.00;;;;;8.10;66.01;101005.31;5012955;28;45219;-54
2022/01/08 08:15:40;;;;;;;;;6.25;3.00;;;;;8.18;66.36;101003.88;4997552;28;45455;-61
2022/01/08 08:18:07;;;;;;;;;8.00;8.00;;;;;8.18;66.06;100998.53;5013892;28;44940;-58
2022/01/08 08:20:32;;;;;;;;;2.00;2.00;;;;;7.79;65.98;100921.63;5005105;28;45051;-65
2022/01/08 08:22:58;;;;;;;;;2.50;2.50;;;;;8.13;65.39;100976.16;4977053;28;45035;-59
2022/01/08 08:25:23;;;;;;;;;2.50;2.50;;;;;8.20;65.80;100980.91;4993442;28;45635;-59
2022/01/08 08:27:50;;;;;;;;;6.50;3.50;;;;;8.33;65.06;100989.38;4994468;28;45100;-56
2022/01/08 08:30:16;;;;;;;;;13.75;4.00;;;;;8.38;65.55;100982.47;5001438;28;44966;-58
2022/01/08 08:32:41;;;;;;;;;6.50;5.00;;;;;8.41;66.11;100975.50;5002596;28;45420;-65
2022/01/08 08:35:07;;;;;;;;;3.75;3.00;;;;;8.45;65.84;100969.50;4993050;28;45325;-55
2022/01/08 08:37:35;;;;;;;;;17.75;13.00;;;;;8.51;66.59;100970.56;4996712;28;45143;-52
2022/01/08 08:40:01;;;;;;;;;7.75;6.75;;;;;8.56;66.12;100967.22;4999464;28;44859;-57
2022/01/08 08:42:26;;;;;;;;;3.50;2.25;;;;;8.49;67.18;100954.53;4996728;28;45201;-56
2022/01/08 08:44:51;;;;;;;;;8.00;3.00;;;;;8.47;67.61;100954.47;4993432;28;45409;-56
2022/01/08 08:47:17;;;;;;;;;6.50;4.00;;;;;8.51;67.69;100950.16;4992365;28;45208;-55
2022/01/08 08:49:42;;;;;;;;;9.50;3.25;;;;;8.49;69.30;100949.22;4992611;28;45166;-59
2022/01/08 08:52:08;;;;;;;;;8.50;4.50;;;;;8.42;69.01;100934.72;4992165;28;45063;-57
2022/01/08 08:54:33;;;;;;;;;9.25;4.00;;;;;8.47;68.96;100942.94;4991788;28;45526;-56
2022/01/08 08:56:59;;;;;;;;;6.75;4.75;;;;;8.26;69.69;100890.63;4992221;28;45219;-54
2022/01/08 08:59:25;;;;;;;;;5.75;5.75;;;;;8.51;70.24;100928.88;4991613;28;44991;-61
2022/01/08 09:01:51;;;;;;;;;8.25;6.00;;;;;8.52;70.68;100924.47;4992083;28;45110;-58
2022/01/08 09:04:16;;;;;;;;;7.00;4.25;;;;;8.10;71.00;100858.97;4992172;28;45965;-55
2022/01/08 09:06:41;;;;;;;;;7.00;7.00;;;;;8.51;70.03;100938.63;4991856;28;45089;-58
2022/01/08 09:09:07;;;;;;;;;7.00;3.75;;;;;8.52;69.96;100930.69;4992135;28;45040;-55
2022/01/08 09:11:34;;;;;;;;;4.50;4.25;;;;;8.54;70.20;100922.75;4995219;28;44960;-56
2022/01/08 09:13:59;;;;;;;;;5.75;3.50;;;;;8.50;70.65;100905.75;5012892;28;45623;-60
2022/01/08 09:16:25;;;;;;;;;17.50;15.00;;;;;8.58;70.83;100904.28;5011207;28;45289;-62
2022/01/08 09:18:50;;;;;;;;;8.75;5.75;;;;;8.44;70.58;100886.88;5010905;28;44895;-56
2022/01/08 09:21:16;;;;;;;;;8.00;8.00;;;;;8.63;71.27;100902.69;4992883;28;44976;-56
2022/01/08 09:23:42;;;;;;;;;6.00;4.00;;;;;8.63;70.42;100902.69;4993099;28;45313;-55
2022/01/08 09:26:08;;;;;;;;;10.00;8.25;;;;;8.59;71.07;100874.13;5006379;28;45165;-56
2022/01/08 09:28:33;;;;;;;;;8.00;6.25;;;;;8.79;70.36;100892.59;5010384;28;45348;-59
2022/01/08 09:31:01;;;;;;;;;5.00;4.00;;;;;8.82;70.28;100893.59;5010023;28;45192;-58
2022/01/08 09:33:26;;;;;;;;;8.50;7.00;;;;;8.80;70.50;100875.78;5011400;28;45627;-61
2022/01/08 09:35:52;;;;;;;;;9.00;6.50;;;;;8.82;70.25;100858.06;4992804;28;44972;-56
2022/01/08 09:38:19;;;;;;;;;8.25;6.25;;;;;9.01;69.92;100889.84;4994952;28;44948;-57
2022/01/08 09:40:44;;;;;;;;;6.25;2.75;;;;;8.96;70.26;100870.13;5012325;28;44896;-55
2022/01/08 09:43:10;;;;;;;;;5.00;5.00;;;;;9.10;70.17;100878.59;5012070;28;45180;-59
2022/01/08 09:45:35;;;;;;;;;7.75;3.25;;;;;8.99;71.10;100854.25;5010001;28;44920;-56
2022/01/08 09:48:01;;;;;;;;;5.50;4.00;;;;;9.12;71.06;100867.97;5009234;28;44934;-63
2022/01/08 09:50:26;;;;;;;;;5.50;5.50;;;;;8.95;70.58;100830.09;5009940;28;45182;-56
2022/01/08 09:52:57;;;;;;;;;6.25;4.00;;;;;9.17;70.90;100861.03;5009288;28;45730;-57
2022/01/08 09:55:26;;;;;;;;;3.50;3.50;;;;;8.97;71.12;100818.63;5009347;28;45477;-55
2022/01/08 09:57:52;;;;;;;;;5.00;3.75;;;;;8.67;71.68;100754.56;5010114;28;45283;-57
2022/01/08 10:00:18;;;;;;;;;10.75;7.00;;;;;9.27;70.85;100838.25;5008396;28;45168;-61
2022/01/08 10:02:44;;;;;;;;;6.00;5.75;;;;;9.32;71.58;100839.31;5010101;28;45544;-61
2022/01/08 10:05:17;;;;;;;;;11.25;6.25;;;;;9.27;70.78;100806.28;5010471;28;45164;-57
2022/01/08 10:07:55;;;;;;;;;13.25;8.50;;;;;9.34;70.70;100801.19;5009797;28;45069;-58
2022/01/08 10:10:21;;;;;;;;;5.25;5.00;;;;;9.55;70.54;100810.72;5009922;28;45117;-58
2022/01/08 10:12:50;;;;;;;;;7.25;4.50;;;;;9.61;70.05;100810.91;5009228;28;45310;-56
2022/01/08 10:18:09;;;;;;;;;9.00;6.25;;;;;9.63;69.44;100778.97;5011135;28;45124;-61
2022/01/08 10:20:36;;;;;;;;;10.75;7.25;;;;;9.76;69.43;100800.72;5010363;28;45108;-59
2022/01/08 10:23:08;;;;;;;;;10.00;8.75;;;;;9.78;69.57;100801.69;4995520;28;45646;-57
2022/01/08 10:25:33;;;;;;;;;9.25;6.00;;;;;9.77;69.79;100798.97;4995993;28;45194;-55
2022/01/08 10:27:58;;;;;;;;;10.00;9.25;;;;;9.75;69.62;100800.66;4990861;28;45020;-65
2022/01/08 10:30:25;;;;;;;;;10.50;9.00;;;;;9.36;70.18;100740.81;5001776;28;44993;-62
2022/01/08 10:32:56;;;;;;;;;11.25;6.50;;;;;9.77;70.47;100788.31;5001138;28;45647;-61
2022/01/08 10:35:48;;;;;;;;;15.00;9.75;;;;;9.76;70.90;100779.38;4997562;28;44959;-63
2022/01/08 10:38:13;;;;;;;;;8.00;7.25;;;;;9.11;71.09;100664.53;4994798;28;45449;-62
2022/01/08 10:40:39;;;;;;;;;14.50;6.00;;;;;9.66;71.55;100758.63;4989636;28;45550;-64
2022/01/08 10:43:31;;;;;;;;;11.50;5.50;;;;;9.73;71.20;100765.97;4976612;28;46642;-67
2022/01/08 10:46:18;;;;;;;;;5.25;3.00;;;;;9.70;72.17;100744.53;5005481;28;45375;-63
2022/01/08 10:48:47;;;;;;;;;5.50;3.00;;;;;9.61;71.92;100730.91;5006506;28;45261;-61
2022/01/08 10:51:19;;;;;;;;;6.75;5.00;;;;;9.70;72.27;100749.88;5002079;28;46120;-64
2022/01/08 10:53:57;;;;;;;;;16.50;7.50;;;;;9.55;72.89;100728.03;5002825;28;45638;-65
2022/01/08 10:56:28;;;;;;;;;8.50;4.00;;;;;9.52;72.39;100714.59;4997476;28;45177;-63
2022/01/08 10:59:03;;;;;;;;;9.75;4.75;;;;;9.63;72.73;100726.50;4999142;28;45146;-63
2022/01/08 11:01:47;;;;;;;;;5.00;5.00;;;;;9.64;73.04;100722.09;4985764;28;45260;-63
2022/01/08 11:04:16;;;;;;;;;11.75;2.75;;;;;9.34;73.38;100654.56;5004112;28;45393;-65
2022/01/08 11:07:20;;;;;;;;;8.75;4.25;;;;;9.66;73.31;100710.59;4993852;28;45216;-66
2022/01/08 11:09:47;;;;;;;;;10.25;3.00;;;;;9.48;73.50;100667.38;4995472;28;45344;-64
2022/01/08 11:12:17;;;;;;;;;6.50;5.00;;;;;9.64;72.93;100688.31;4996974;28;45224;-61
2022/01/08 11:17:26;;;;;;;;;9.00;5.00;;;;;9.63;73.21;100673.16;5002219;28;45452;-65
2022/01/08 11:19:58;;;;;;;;;6.50;5.75;;;;;9.66;73.16;100678.59;4996091;28;45123;-66
2022/01/08 11:22:26;;;;;;;;;5.00;4.00;;;;;9.53;73.60;100639.97;4999478;28;44979;-64
2022/01/08 11:24:56;;;;;;;;;4.00;3.25;;;;;9.72;73.11;100656.53;4991219;28;47580;-62
2022/01/08 11:27:25;;;;;;;;;9.75;4.25;;;;;9.58;73.05;100626.78;4999875;28;45179;-62
2022/01/08 11:30:07;;;;;;;;;4.75;3.00;;;;;9.73;73.25;100636.97;5002326;28;45231;-64
2022/01/08 11:32:35;;;;;;;;;3.75;3.00;;;;;9.71;73.40;100638.72;4992857;28;45161;-64
2022/01/08 11:35:02;;;;;;;;;12.75;4.50;;;;;9.71;73.30;100620.94;5000689;28;45720;-63
2022/01/08 11:37:30;;;;;;;;;9.75;7.00;;;;;9.75;73.35;100621.91;5008690;28;45117;-63
2022/01/08 11:39:56;;;;;;;;;9.50;9.50;;;;;9.77;73.29;100613.09;5006605;28;45049;-65
2022/01/08 11:42:22;;;;;;;;;9.75;7.00;;;;;9.80;73.07;100609.63;4999353;28;45075;-64
2022/01/08 11:44:50;;;;;;;;;4.25;3.00;;;;;9.79;72.48;100594.47;4996563;28;45627;-62
2022/01/08 11:47:18;;;;;;;;;13.50;9.50;;;;;9.67;72.94;100560.38;4994709;28;45104;-63
2022/01/08 11:49:44;;;;;;;;;11.00;8.00;;;;;9.79;72.29;100573.13;4993980;28;45054;-66
2022/01/08 11:52:17;;;;;;;;;7.25;6.00;;;;;9.71;72.79;100556.91;4996049;28;45251;-69